North Star — XPD6470 — position and weather

sailwx.info

Track history (hours):
 
Tides and Currents Weather Stations Pressure Air Temp Water Temp Dewpoint Dewpoint Depression Visibility Wind Speed Wind Dir Waves Ship Positions

North Star

Last reported at 2018-Feb-21 05:26 UTC. Time now 2018-Feb-21 05:46 UTC.
Position N 18°02' W 063°05'.

Length 13 m.

Type: Sailing vessel. MMSI: 219008067.

Date/timePositionNaut miles runAvg speedWind from/ knotsBaromVisibWave heightAir tempDewpointWater temp
2018-Feb-21 05:26N 18°02' W 063°05'0 0.0
2018-Feb-21 04:56N 18°02' W 063°05'0 0.0
2018-Feb-21 04:30N 18°02' W 063°05'0 0.0
2018-Feb-21 03:59N 18°02' W 063°05'0 0.0
2018-Feb-21 03:30N 18°02' W 063°05'0 0.0
2018-Feb-21 02:44N 18°02' W 063°05'0 0.0
2018-Feb-21 02:29N 18°02' W 063°05'0 0.0
2018-Feb-21 01:59N 18°02' W 063°05'0 0.0
2018-Feb-21 01:29N 18°02' W 063°05'0 0.0
2018-Feb-21 01:00N 18°02' W 063°05'0 0.0
2018-Feb-21 00:17N 18°02' W 063°05'0 0.0
2018-Feb-21 00:00N 18°02' W 063°05'0 0.0
2018-Feb-20 23:30N 18°02' W 063°05'0 0.0
2018-Feb-20 23:00N 18°02' W 063°05'0 0.0
2018-Feb-20 22:30N 18°02' W 063°05'0 0.0
2018-Feb-20 21:59N 18°02' W 063°05'0 0.1
2018-Feb-20 21:29N 18°02' W 063°05'0 0.9
2018-Feb-20 20:59N 18°02' W 063°06'1 2.7
2018-Feb-20 20:30N 18°01' W 063°05'4 7.4
2018-Feb-20 20:00N 17°60' W 063°02'  
2018-Feb-17 14:09N 17°41' W 062°11'2 6.6
2018-Feb-17 13:51N 17°40' W 062°10'2 6.5
2018-Feb-17 13:30N 17°40' W 062°07'4 7.0
2018-Feb-17 12:59N 17°38' W 062°04'4 7.3
2018-Feb-17 12:30N 17°37' W 062°00'4 7.4
2018-Feb-17 11:58N 17°35' W 061°57'3 6.8
2018-Feb-17 11:30N 17°34' W 061°53'3 6.9
2018-Feb-17 11:00N 17°33' W 061°50'4 0.2
2018-Feb-16 18:19N 17°33' W 061°46'1 3.9
2018-Feb-16 17:56N 17°32' W 061°47'3 6.1
2018-Feb-16 17:28N 17°30' W 061°48'3 6.4
2018-Feb-16 17:00N 17°27' W 061°49'3 6.5
2018-Feb-16 16:30N 17°24' W 061°50'3 6.4
2018-Feb-16 16:00N 17°20' W 061°51'3 6.5
2018-Feb-16 15:30N 17°17' W 061°51'3 6.4
2018-Feb-16 15:00N 17°14' W 061°52'3 6.1
2018-Feb-16 14:30N 17°11' W 061°52'3 6.4
2018-Feb-16 13:59N 17°08' W 061°52'1 3.1
2018-Feb-16 13:30N 17°07' W 061°51'0 0.3
2018-Feb-16 13:00N 17°07' W 061°51'0 0.8
2018-Feb-16 12:29N 17°07' W 061°52'0 0.3
2018-Feb-16 12:00N 17°07' W 061°51'0 0.3
2018-Feb-16 11:30N 17°07' W 061°51'2 3.4
2018-Feb-16 11:00N 17°08' W 061°53'0 0.9
2018-Feb-16 10:28N 17°08' W 061°53'0 0.0
2018-Feb-16 01:09N 17°08' W 061°53'0 0.0
2018-Feb-16 01:00N 17°08' W 061°53'0 0.0
2018-Feb-16 00:30N 17°08' W 061°53'0 0.0
2018-Feb-16 00:00N 17°08' W 061°53'0 0.0
2018-Feb-15 23:30N 17°08' W 061°53'0 0.0
2018-Feb-15 23:00N 17°08' W 061°53'0 0.0
2018-Feb-15 22:30N 17°08' W 061°53'0 0.0
2018-Feb-15 22:00N 17°08' W 061°53'0 0.0
2018-Feb-15 21:30N 17°08' W 061°53'0 0.0
2018-Feb-15 21:00N 17°08' W 061°53'0 0.8
2018-Feb-15 20:30N 17°08' W 061°53'3 5.8
2018-Feb-15 20:00N 17°06' W 061°55'5 7.0
2018-Feb-15 19:19N 17°01' W 061°54'1 2.1
2018-Feb-15 19:00N 17°01' W 061°54'2 4.4
2018-Feb-15 18:30N 16°60' W 061°52'3 5.2
2018-Feb-15 18:00N 16°59' W 061°49'3 5.4
2018-Feb-15 17:30N 16°60' W 061°46'1 1.8
2018-Feb-15 17:00N 17°00' W 061°46'0 0.0
2018-Feb-15 16:30N 17°00' W 061°46'0 0.0
2018-Feb-15 16:00N 17°00' W 061°46'  
Track history (hours):
 
Tides and Currents Weather Stations Pressure Air Temp Water Temp Dewpoint Dewpoint Depression Visibility Wind Speed Wind Dir Waves Ship Positions

North Star

Last reported at 2018-Feb-21 05:26 UTC. Time now 2018-Feb-21 05:46 UTC.
Position N 18°02' W 063°05'.

Length 13 m.

Type: Sailing vessel. MMSI: 219008067.

Date/timePositionNaut miles runAvg speedWind from/ knotsBaromVisibWave heightAir tempDewpointWater temp
2018-Feb-21 05:26N 18°02' W 063°05'0 0.0
2018-Feb-21 04:56N 18°02' W 063°05'0 0.0
2018-Feb-21 04:30N 18°02' W 063°05'0 0.0
2018-Feb-21 03:59N 18°02' W 063°05'0 0.0
2018-Feb-21 03:30N 18°02' W 063°05'0 0.0
2018-Feb-21 02:44N 18°02' W 063°05'0 0.0
2018-Feb-21 02:29N 18°02' W 063°05'0 0.0
2018-Feb-21 01:59N 18°02' W 063°05'0 0.0
2018-Feb-21 01:29N 18°02' W 063°05'0 0.0
2018-Feb-21 01:00N 18°02' W 063°05'0 0.0
2018-Feb-21 00:17N 18°02' W 063°05'0 0.0
2018-Feb-21 00:00N 18°02' W 063°05'0 0.0
2018-Feb-20 23:30N 18°02' W 063°05'0 0.0
2018-Feb-20 23:00N 18°02' W 063°05'0 0.0
2018-Feb-20 22:30N 18°02' W 063°05'0 0.0
2018-Feb-20 21:59N 18°02' W 063°05'0 0.1
2018-Feb-20 21:29N 18°02' W 063°05'0 0.9
2018-Feb-20 20:59N 18°02' W 063°06'1 2.7
2018-Feb-20 20:30N 18°01' W 063°05'4 7.4
2018-Feb-20 20:00N 17°60' W 063°02'  
2018-Feb-17 14:09N 17°41' W 062°11'2 6.6
2018-Feb-17 13:51N 17°40' W 062°10'2 6.5
2018-Feb-17 13:30N 17°40' W 062°07'4 7.0
2018-Feb-17 12:59N 17°38' W 062°04'4 7.3
2018-Feb-17 12:30N 17°37' W 062°00'4 7.4
2018-Feb-17 11:58N 17°35' W 061°57'3 6.8
2018-Feb-17 11:30N 17°34' W 061°53'3 6.9
2018-Feb-17 11:00N 17°33' W 061°50'4 0.2
2018-Feb-16 18:19N 17°33' W 061°46'1 3.9
2018-Feb-16 17:56N 17°32' W 061°47'3 6.1
2018-Feb-16 17:28N 17°30' W 061°48'3 6.4
2018-Feb-16 17:00N 17°27' W 061°49'3 6.5
2018-Feb-16 16:30N 17°24' W 061°50'3 6.4
2018-Feb-16 16:00N 17°20' W 061°51'3 6.5
2018-Feb-16 15:30N 17°17' W 061°51'3 6.4
2018-Feb-16 15:00N 17°14' W 061°52'3 6.1
2018-Feb-16 14:30N 17°11' W 061°52'3 6.4
2018-Feb-16 13:59N 17°08' W 061°52'1 3.1
2018-Feb-16 13:30N 17°07' W 061°51'0 0.3
2018-Feb-16 13:00N 17°07' W 061°51'0 0.8
2018-Feb-16 12:29N 17°07' W 061°52'0 0.3
2018-Feb-16 12:00N 17°07' W 061°51'0 0.3
2018-Feb-16 11:30N 17°07' W 061°51'2 3.4
2018-Feb-16 11:00N 17°08' W 061°53'0 0.9
2018-Feb-16 10:28N 17°08' W 061°53'0 0.0
2018-Feb-16 01:09N 17°08' W 061°53'0 0.0
2018-Feb-16 01:00N 17°08' W 061°53'0 0.0
2018-Feb-16 00:30N 17°08' W 061°53'0 0.0
2018-Feb-16 00:00N 17°08' W 061°53'0 0.0
2018-Feb-15 23:30N 17°08' W 061°53'0 0.0
2018-Feb-15 23:00N 17°08' W 061°53'0 0.0
2018-Feb-15 22:30N 17°08' W 061°53'0 0.0
2018-Feb-15 22:00N 17°08' W 061°53'0 0.0
2018-Feb-15 21:30N 17°08' W 061°53'0 0.0
2018-Feb-15 21:00N 17°08' W 061°53'0 0.8
2018-Feb-15 20:30N 17°08' W 061°53'3 5.8
2018-Feb-15 20:00N 17°06' W 061°55'5 7.0
2018-Feb-15 19:19N 17°01' W 061°54'1 2.1
2018-Feb-15 19:00N 17°01' W 061°54'2 4.4
2018-Feb-15 18:30N 16°60' W 061°52'3 5.2
2018-Feb-15 18:00N 16°59' W 061°49'3 5.4
2018-Feb-15 17:30N 16°60' W 061°46'1 1.8
2018-Feb-15 17:00N 17°00' W 061°46'0 0.0
2018-Feb-15 16:30N 17°00' W 061°46'0 0.0
2018-Feb-15 16:00N 17°00' W 061°46'  

Dump ship's entire track history